Time;durP1;ratioP1;P1;durP2;ratioP2;P2;SDS_P1;SDS_P2;PMS_P1;PMS_P2;Temp;Humidity;BMP_temperature;BMP_pressure;BME280_temperature;BME280_humidity;BME280_pressure;Samples;Min_cycle;Max_cycle;Signal;HPM_P1;HPM_P2
2023/03/15 00:00:01;;;;;;;4.00;1.60;;;;;;;4.59;100.00;97580.84;2537562;29;20044;-80
2023/03/15 00:01:19;;;;;;;3.78;1.55;;;;;;;4.36;100.00;97578.66;2537548;29;20040;-78
2023/03/15 00:02:35;;;;;;;5.57;1.52;;;;;;;4.63;100.00;97574.75;2537530;29;20130;-78
2023/03/15 00:03:51;;;;;;;6.15;1.75;;;;;;;4.75;100.00;97575.38;2537334;29;20059;-84
2023/03/15 00:05:06;;;;;;;8.63;2.00;;;;;;;4.80;100.00;97579.59;2537332;29;20059;-81
2023/03/15 00:06:22;;;;;;;5.85;1.67;;;;;;;4.45;100.00;97580.25;2537306;29;20534;-79
2023/03/15 00:07:38;;;;;;;5.03;1.65;;;;;;;4.72;100.00;97580.63;2537339;29;20052;-78
2023/03/15 00:08:54;;;;;;;3.70;1.40;;;;;;;4.77;100.00;97584.00;2537444;29;20131;-80
2023/03/15 00:10:10;;;;;;;5.43;1.45;;;;;;;4.75;100.00;97578.84;2537391;29;20555;-79
2023/03/15 00:11:25;;;;;;;5.05;1.55;;;;;;;4.57;100.00;97582.63;2537098;29;20056;-81
2023/03/15 00:12:44;;;;;;;5.93;1.75;;;;;;;4.43;100.00;97577.69;2537100;29;20083;-79
2023/03/15 00:14:01;;;;;;;5.22;1.67;;;;;;;4.64;100.00;97584.22;2536988;29;20110;-79
2023/03/15 00:15:16;;;;;;;9.13;1.98;;;;;;;4.62;100.00;97583.41;2537129;29;20060;-79
2023/03/15 00:16:32;;;;;;;6.35;1.73;;;;;;;4.52;100.00;97580.09;2537444;29;20056;-79
2023/03/15 00:17:47;;;;;;;7.35;1.60;;;;;;;4.63;100.00;97585.13;2537106;29;20078;-78
2023/03/15 00:19:03;;;;;;;6.47;1.42;;;;;;;4.57;100.00;97592.16;2537239;29;20063;-79
2023/03/15 00:20:19;;;;;;;6.55;1.55;;;;;;;4.53;100.00;97596.53;2537300;29;20062;-81
2023/03/15 00:21:34;;;;;;;5.35;1.80;;;;;;;4.58;100.00;97597.28;2537269;29;20180;-78
2023/03/15 00:22:50;;;;;;;8.23;1.73;;;;;;;4.47;100.00;97596.59;2537244;29;20052;-79
2023/03/15 00:24:06;;;;;;;5.72;1.48;;;;;;;4.58;100.00;97599.88;2537257;29;20288;-78
2023/03/15 00:25:21;;;;;;;6.18;2.22;;;;;;;4.47;100.00;97599.19;2536995;29;20083;-79
2023/03/15 00:26:38;;;;;;;4.55;1.70;;;;;;;4.53;100.00;97604.31;2537020;29;20059;-79
2023/03/15 00:27:53;;;;;;;4.10;1.42;;;;;;;4.51;100.00;97606.06;2537138;29;20451;-79
2023/03/15 00:29:09;;;;;;;6.07;1.55;;;;;;;4.39;100.00;97614.88;2536893;29;20488;-79
2023/03/15 00:30:25;;;;;;;4.85;1.70;;;;;;;4.49;100.00;97610.44;2537023;29;20624;-80
2023/03/15 00:31:40;;;;;;;10.98;2.13;;;;;;;4.27;100.00;97625.47;2536941;29;20197;-79
2023/03/15 00:32:56;;;;;;;8.63;1.83;;;;;;;4.21;100.00;97616.06;2536811;29;20256;-79
2023/03/15 00:34:12;;;;;;;4.13;1.65;;;;;;;4.39;100.00;97620.06;2535648;29;20060;-83
2023/03/15 00:35:28;;;;;;;9.43;1.50;;;;;;;4.38;100.00;97615.78;2537253;29;20143;-78
2023/03/15 00:36:44;;;;;;;6.10;1.67;;;;;;;4.03;100.00;97612.84;2536994;29;20048;-79
2023/03/15 00:38:00;;;;;;;6.70;1.30;;;;;;;4.15;100.00;97611.81;2537116;29;20051;-79
2023/03/15 00:39:16;;;;;;;5.75;1.90;;;;;;;4.12;100.00;97619.66;2537034;29;20056;-79
2023/03/15 00:40:31;;;;;;;8.00;1.60;;;;;;;4.00;100.00;97618.09;2537131;29;20051;-79
2023/03/15 00:41:47;;;;;;;10.10;2.15;;;;;;;4.02;100.00;97618.91;2537255;29;20059;-79
2023/03/15 00:43:03;;;;;;;7.30;2.55;;;;;;;3.92;100.00;97617.38;2536558;29;20059;-79
2023/03/15 00:44:18;;;;;;;5.82;2.13;;;;;;;3.96;100.00;97619.84;2536875;29;20060;-79
2023/03/15 00:45:34;;;;;;;5.90;1.77;;;;;;;3.83;100.00;97626.09;2536978;29;20566;-79
2023/03/15 00:46:50;;;;;;;9.13;1.85;;;;;;;3.66;100.00;97616.81;2536952;29;20514;-78
2023/03/15 00:48:05;;;;;;;4.78;1.60;;;;;;;3.38;100.00;97611.16;2536430;29;20056;-80
2023/03/15 00:49:21;;;;;;;9.20;2.20;;;;;;;3.66;100.00;97619.41;2536764;29;20048;-79
2023/03/15 00:50:36;;;;;;;5.47;1.75;;;;;;;3.68;100.00;97622.00;2536772;29;20408;-80
2023/03/15 00:51:54;;;;;;;6.63;1.55;;;;;;;3.66;100.00;97621.16;2536802;29;20127;-79
2023/03/15 00:53:10;;;;;;;6.70;2.05;;;;;;;3.50;100.00;97623.09;2536438;29;20051;-79
2023/03/15 00:54:26;;;;;;;8.52;2.03;;;;;;;3.30;100.00;97625.91;2536889;29;20347;-78
2023/03/15 00:55:41;;;;;;;9.18;1.60;;;;;;;3.37;100.00;97635.34;2536920;29;20083;-79
2023/03/15 00:56:57;;;;;;;7.78;2.83;;;;;;;3.33;100.00;97631.06;2536926;29;20439;-79
2023/03/15 00:58:13;;;;;;;5.38;1.40;;;;;;;3.20;100.00;97622.59;2536763;29;20421;-78
2023/03/15 00:59:34;;;;;;;7.20;2.30;;;;;;;3.17;100.00;97630.41;2537222;29;20052;-79
2023/03/15 01:00:50;;;;;;;10.23;3.17;;;;;;;3.14;100.00;97627.81;2537030;29;20063;-79
2023/03/15 01:02:06;;;;;;;4.72;1.90;;;;;;;3.04;100.00;97629.66;2536649;29;20058;-80
2023/03/15 01:03:22;;;;;;;6.20;1.75;;;;;;;2.78;100.00;97626.47;2536776;29;20060;-78
2023/03/15 01:04:37;;;;;;;5.32;1.58;;;;;;;2.90;100.00;97628.06;2536798;29;20059;-78
2023/03/15 01:05:53;;;;;;;8.85;1.73;;;;;;;2.92;100.00;97628.06;2536692;29;20056;-80
2023/03/15 01:07:10;;;;;;;7.45;2.00;;;;;;;3.04;100.00;97629.66;2537056;29;20052;-79
2023/03/15 01:08:26;;;;;;;5.85;1.65;;;;;;;3.03;100.00;97633.13;2536780;29;20107;-79
2023/03/15 01:09:43;;;;;;;5.40;1.95;;;;;;;2.94;100.00;97629.78;2536076;29;20487;-79
2023/03/15 01:11:07;;;;;;;5.93;2.05;;;;;;;3.20;100.00;97632.94;2536900;29;20048;-78
2023/03/15 01:12:22;;;;;;;8.80;2.05;;;;;;;3.37;100.00;97630.16;2536544;29;20052;-79
2023/03/15 01:13:39;;;;;;;5.35;1.95;;;;;;;3.23;100.00;97631.19;2536319;29;20059;-78
2023/03/15 01:14:54;;;;;;;3.13;1.85;;;;;;;3.12;100.00;97643.38;2536601;29;20055;-78
2023/03/15 01:16:12;;;;;;;7.30;1.88;;;;;;;2.94;100.00;97647.00;2536743;29;20055;-79
2023/03/15 01:17:28;;;;;;;10.93;1.60;;;;;;;2.87;100.00;97648.78;2536396;29;20161;-78
2023/03/15 01:18:43;;;;;;;7.05;1.90;;;;;;;2.91;100.00;97652.22;2536832;29;20075;-78
2023/03/15 01:19:59;;;;;;;6.72;1.63;;;;;;;3.08;100.00;97659.81;2536851;29;20048;-79
2023/03/15 01:21:15;;;;;;;6.20;2.08;;;;;;;2.98;100.00;97661.59;2536441;29;20060;-81
2023/03/15 01:22:31;;;;;;;7.90;1.80;;;;;;;3.08;100.00;97659.81;2536591;29;20138;-80
2023/03/15 01:23:46;;;;;;;4.47;1.70;;;;;;;2.86;100.00;97656.56;2536716;29;20052;-81
2023/03/15 01:25:02;;;;;;;4.88;1.85;;;;;;;2.67;100.00;97644.69;2536726;29;20131;-78
2023/03/15 01:26:18;;;;;;;9.43;2.10;;;;;;;2.55;100.00;97642.19;2537092;29;20087;-78
2023/03/15 01:27:34;;;;;;;9.10;1.75;;;;;;;2.82;100.00;97635.06;2536621;29;20221;-78
2023/03/15 01:28:50;;;;;;;6.10;1.77;;;;;;;2.97;100.00;97640.06;2536692;29;20052;-78
2023/03/15 01:30:06;;;;;;;6.65;1.88;;;;;;;3.03;100.00;97631.41;2536346;29;20095;-78
2023/03/15 01:31:27;;;;;;;6.63;1.63;;;;;;;2.94;100.00;97631.50;2536587;29;20059;-80
2023/03/15 01:32:43;;;;;;;10.63;1.60;;;;;;;2.73;100.00;97627.38;2536501;29;20147;-78
2023/03/15 01:33:59;;;;;;;9.35;2.00;;;;;;;2.63;100.00;97618.88;2536266;29;20059;-79
2023/03/15 01:35:15;;;;;;;3.50;1.67;;;;;;;2.42;100.00;97615.59;2536181;29;20273;-78
2023/03/15 01:36:31;;;;;;;4.65;1.85;;;;;;;2.74;100.00;97614.47;2536587;29;20127;-78
2023/03/15 01:37:50;;;;;;;6.35;1.67;;;;;;;2.81;100.00;97620.44;2536508;29;20482;-79
2023/03/15 01:39:05;;;;;;;5.20;1.45;;;;;;;2.43;100.00;97616.47;2536265;29;20052;-79
2023/03/15 01:40:21;;;;;;;8.25;1.63;;;;;;;2.51;100.00;97622.41;2536416;29;20436;-78
2023/03/15 01:41:37;;;;;;;7.60;2.10;;;;;;;2.45;100.00;97619.91;2526035;29;20056;-78
2023/03/15 01:43:14;;;;;;;3.65;1.55;;;;;;;2.41;100.00;97624.22;2529434;29;20147;-79
2023/03/15 01:44:56;;;;;;;6.35;1.90;;;;;;;2.33;100.00;97624.28;2536448;29;20191;-82
2023/03/15 01:46:27;;;;;;;6.28;1.75;;;;;;;2.40;100.00;97627.69;2536316;29;20052;-79
2023/03/15 01:47:42;;;;;;;8.85;2.20;;;;;;;2.39;100.00;97629.41;2536376;29;20079;-77
2023/03/15 01:49:04;;;;;;;8.48;1.90;;;;;;;2.49;100.00;97644.81;2536347;29;20102;-78
2023/03/15 01:50:24;;;;;;;9.85;2.05;;;;;;;2.57;100.00;97643.03;2536659;29;20056;-78
2023/03/15 01:52:05;;;;;;;3.67;1.63;;;;;;;2.55;100.00;97655.13;2536064;29;20059;-78
2023/03/15 01:53:24;;;;;;;5.82;2.20;;;;;;;2.63;100.00;97661.06;2536170;29;20106;-78
2023/03/15 01:54:50;;;;;;;3.83;1.73;;;;;;;2.70;100.00;97664.44;2536173;29;20047;-77
2023/03/15 01:56:07;;;;;;;4.63;1.75;;;;;;;2.66;100.00;97668.81;2525774;29;20491;-78
2023/03/15 01:57:54;;;;;;;6.15;1.98;;;;;;;2.73;100.00;97673.91;2531149;29;20052;-78
2023/03/15 01:59:21;;;;;;;4.07;1.42;;;;;;;2.62;100.00;97681.78;2530568;29;20090;-78
2023/03/15 02:00:36;;;;;;;7.45;1.52;;;;;;;2.51;100.00;97682.72;2536293;29;20052;-78
2023/03/15 02:01:54;;;;;;;9.40;1.30;;;;;;;2.52;100.00;97686.16;2536241;29;20091;-78
2023/03/15 02:03:15;;;;;;;5.32;1.45;;;;;;;2.74;100.00;97678.22;2536045;29;20060;-78
2023/03/15 02:04:41;;;;;;;3.78;1.55;;;;;;;2.67;100.00;97677.41;2536268;29;20112;-79
2023/03/15 02:06:00;;;;;;;9.20;1.98;;;;;;;2.56;100.00;97672.34;2536393;29;20961;-80
2023/03/15 02:07:20;;;;;;;8.85;1.60;;;;;;;2.38;100.00;97671.63;2536300;29;20087;-79
2023/03/15 02:08:41;;;;;;;6.07;1.60;;;;;;;2.32;100.00;97658.75;2536415;29;20087;-80
2023/03/15 02:10:09;;;;;;;7.13;1.83;;;;;;;2.31;100.00;97657.03;2536097;29;20143;-79
2023/03/15 02:11:26;;;;;;;5.43;1.30;;;;;;;2.32;100.00;97651.00;2536446;29;20415;-79
2023/03/15 02:12:46;;;;;;;8.75;1.80;;;;;;;2.42;100.00;97650.94;2535839;29;20051;-82
2023/03/15 02:14:04;;;;;;;5.35;1.35;;;;;;;2.13;100.00;97646.84;2536267;29;20054;-78
2023/03/15 02:15:19;;;;;;;7.38;1.80;;;;;;;2.21;100.00;97648.50;2535941;29;20143;-81
2023/03/15 02:16:36;;;;;;;6.35;1.63;;;;;;;1.98;100.00;97648.66;2536301;29;20441;-78
2023/03/15 02:17:53;;;;;;;6.25;1.85;;;;;;;1.79;100.00;97663.38;2535914;29;20056;-78
2023/03/15 02:19:20;;;;;;;4.15;1.67;;;;;;;1.78;100.00;97666.84;2536302;29;20052;-78
2023/03/15 02:20:50;;;;;;;8.25;1.98;;;;;;;2.28;100.00;97666.50;2536104;29;20058;-78
2023/03/15 02:22:14;;;;;;;7.53;1.95;;;;;;;2.14;100.00;97676.97;2536294;29;20597;-79
2023/03/15 02:23:30;;;;;;;5.90;1.38;;;;;;;2.09;100.00;97677.81;2536024;29;20550;-78
2023/03/15 02:25:13;;;;;;;6.85;1.67;;;;;;;2.20;100.00;97679.47;2535923;29;20067;-78
2023/03/15 02:26:36;;;;;;;11.23;2.40;;;;;;;1.88;100.00;97688.28;2535251;29;20059;-78
2023/03/15 02:27:51;;;;;;;6.32;2.42;;;;;;;1.92;100.00;97689.97;2536277;29;20131;-82
2023/03/15 02:29:07;;;;;;;8.95;2.90;;;;;;;2.03;100.00;97693.38;2536195;29;20052;-78
2023/03/15 02:30:23;;;;;;;6.45;3.00;;;;;;;2.16;100.00;97699.31;2536088;29;20058;-79
2023/03/15 02:31:39;;;;;;;11.30;3.08;;;;;;;2.22;100.00;97703.56;2536080;29;20051;-80
2023/03/15 02:32:58;;;;;;;10.18;3.25;;;;;;;2.32;100.00;97694.06;2535764;29;20502;-78
2023/03/15 02:34:14;;;;;;;12.85;3.28;;;;;;;2.53;100.00;97698.22;2536073;29;20566;-78
2023/03/15 02:35:31;;;;;;;10.48;2.97;;;;;;;2.50;100.00;97709.41;2535827;29;20212;-80
2023/03/15 02:36:47;;;;;;;6.13;3.00;;;;;;;2.53;100.00;97713.72;2535971;29;20135;-78
2023/03/15 02:38:02;;;;;;;8.32;3.05;;;;;;;2.58;100.00;97713.66;2536061;29;20100;-78
2023/03/15 02:39:19;;;;;;;9.63;2.63;;;;;;;2.44;100.00;97714.63;2536047;29;20052;-79
2023/03/15 02:40:35;;;;;;;9.38;2.38;;;;;;;2.38;100.00;97718.13;2535997;29;20587;-80
2023/03/15 02:42:00;;;;;;;7.85;2.40;;;;;;;2.32;100.00;97717.31;2536011;29;20112;-79
2023/03/15 02:43:22;;;;;;;8.82;2.33;;;;;;;2.18;100.00;97723.41;2535689;29;20068;-80
2023/03/15 02:44:40;;;;;;;7.88;2.22;;;;;;;1.85;100.00;97733.03;2535864;29;20535;-79
2023/03/15 02:45:56;;;;;;;9.05;2.08;;;;;;;1.72;100.00;97733.94;2535822;29;20510;-80
2023/03/15 02:47:21;;;;;;;7.78;3.15;;;;;;;1.63;100.00;97727.97;2535962;29;20488;-79
2023/03/15 02:48:38;;;;;;;9.23;2.45;;;;;;;1.61;100.00;97734.88;2525510;29;20193;-79
2023/03/15 02:49:53;;;;;;;8.60;1.85;;;;;;;1.76;100.00;97736.50;2529328;29;20060;-80
2023/03/15 02:51:20;;;;;;;4.43;2.03;;;;;;;1.79;100.00;97736.50;2536111;29;20772;-80
2023/03/15 02:52:36;;;;;;;9.88;2.58;;;;;;;1.91;100.00;97743.34;2535873;29;20405;-79
2023/03/15 02:53:51;;;;;;;6.65;2.28;;;;;;;1.93;100.00;97748.47;2536184;29;20054;-80
2023/03/15 02:55:07;;;;;;;5.10;2.40;;;;;;;1.91;100.00;97747.63;2535744;29;20048;-79
2023/03/15 02:56:23;;;;;;;7.25;2.58;;;;;;;1.85;100.00;97742.53;2536054;29;20060;-79
2023/03/15 02:57:39;;;;;;;9.73;2.90;;;;;;;1.65;100.00;97744.31;2535511;29;20403;-79
2023/03/15 02:58:54;;;;;;;6.90;2.33;;;;;;;2.07;100.00;97741.53;2535642;29;20410;-79
2023/03/15 03:00:13;;;;;;;6.63;2.38;;;;;;;1.71;100.00;97743.44;2536041;29;20060;-80
2023/03/15 03:01:30;;;;;;;8.48;2.65;;;;;;;1.77;100.00;97745.13;2535756;29;20063;-80
2023/03/15 03:02:47;;;;;;;8.82;2.60;;;;;;;1.97;100.00;97745.88;2535656;29;20081;-79
2023/03/15 03:04:03;;;;;;;5.18;2.65;;;;;;;2.21;100.00;97745.75;2535917;29;20504;-79
2023/03/15 03:05:20;;;;;;;6.25;2.55;;;;;;;1.90;100.00;97753.66;2535855;29;20048;-79
2023/03/15 03:06:36;;;;;;;13.10;2.70;;;;;;;1.59;100.00;97753.78;2535716;29;20060;-79
2023/03/15 03:07:52;;;;;;;7.43;2.15;;;;;;;1.60;100.00;97760.66;2535654;29;20056;-84
2023/03/15 03:09:07;;;;;;;5.43;2.03;;;;;;;1.74;100.00;97760.59;2535703;29;20059;-79
2023/03/15 03:10:23;;;;;;;9.75;2.70;;;;;;;2.08;100.00;97755.31;2535736;29;20139;-80
2023/03/15 03:11:39;;;;;;;6.60;2.15;;;;;;;1.86;100.00;97759.72;2535667;29;20079;-78
2023/03/15 03:12:54;;;;;;;7.20;2.10;;;;;;;1.81;100.00;97767.47;2535561;29;21101;-78
2023/03/15 03:14:12;;;;;;;3.55;2.00;;;;;;;1.67;100.00;97772.66;2535824;29;20484;-83
2023/03/15 03:15:28;;;;;;;5.20;2.20;;;;;;;2.00;100.00;97767.38;2535612;29;20056;-77
2023/03/15 03:16:44;;;;;;;5.32;1.80;;;;;;;2.04;100.00;97769.94;2535651;29;20139;-81
2023/03/15 03:17:59;;;;;;;4.90;2.05;;;;;;;1.73;100.00;97770.09;2535600;29;20060;-79
2023/03/15 03:19:16;;;;;;;9.20;2.10;;;;;;;1.59;100.00;97772.69;2515594;29;20085;-77
2023/03/15 03:20:32;;;;;;;6.88;1.90;;;;;;;1.85;100.00;97776.91;2523474;29;20060;-79
2023/03/15 03:21:47;;;;;;;5.10;1.80;;;;;;;2.00;100.00;97765.69;2536040;29;20673;-78
2023/03/15 03:23:05;;;;;;;6.57;1.92;;;;;;;1.85;100.00;97773.50;2535403;29;20048;-78
2023/03/15 03:24:20;;;;;;;7.93;1.95;;;;;;;1.57;100.00;97778.75;2535792;29;20083;-80
2023/03/15 03:25:36;;;;;;;7.32;1.83;;;;;;;1.46;100.00;97774.47;2535747;29;20480;-77
2023/03/15 03:26:56;;;;;;;5.70;1.83;;;;;;;1.46;100.00;97781.31;2535809;29;20060;-78
2023/03/15 03:28:12;;;;;;;4.65;1.90;;;;;;;1.64;100.00;97780.44;2535545;29;20142;-78
2023/03/15 03:29:27;;;;;;;6.65;1.92;;;;;;;1.83;100.00;97776.06;2535536;29;20914;-78
2023/03/15 03:30:43;;;;;;;3.75;1.90;;;;;;;2.09;100.00;97780.25;2535909;29;20203;-78
2023/03/15 03:31:59;;;;;;;10.70;2.00;;;;;;;2.29;100.00;97774.13;2535647;29;20051;-78
2023/03/15 03:33:15;;;;;;;8.65;1.95;;;;;;;2.15;100.00;97780.22;2535580;29;20048;-78
2023/03/15 03:34:31;;;;;;;10.23;1.88;;;;;;;2.30;100.00;97774.13;2535557;29;20059;-83
2023/03/15 03:35:47;;;;;;;6.05;1.98;;;;;;;2.18;100.00;97781.94;2535688;29;20468;-78
2023/03/15 03:37:03;;;;;;;4.93;1.63;;;;;;;2.11;100.00;97773.38;2535797;29;20100;-79
2023/03/15 03:38:18;;;;;;;6.20;1.95;;;;;;;1.75;100.00;97780.41;2535983;29;20142;-79
2023/03/15 03:39:34;;;;;;;5.15;2.00;;;;;;;1.81;100.00;97777.81;2535622;29;20056;-78
2023/03/15 03:40:49;;;;;;;8.95;2.97;;;;;;;1.91;100.00;97783.78;2535790;29;20056;-78
2023/03/15 03:42:05;;;;;;;7.25;2.33;;;;;;;1.94;100.00;97776.88;2535331;29;20111;-78
2023/03/15 03:43:58;;;;;;;8.65;2.85;;;;;;;2.03;100.00;97770.81;2536058;29;20061;-81
2023/03/15 03:45:17;;;;;;;7.65;1.88;;;;;;;1.96;100.00;97784.63;2537248;29;20052;-86
2023/03/15 03:46:48;;;;;;;12.05;2.38;;;;;;;1.88;100.00;97786.38;2513402;29;20067;-81
2023/03/15 03:48:10;;;;;;;3.53;1.70;;;;;;;2.13;100.00;97788.88;2532438;29;20142;-79
2023/03/15 03:49:32;;;;;;;6.35;1.83;;;;;;;1.86;100.00;97798.44;2537163;29;20484;-81
2023/03/15 03:51:00;;;;;;;5.10;1.33;;;;;;;1.94;100.00;97801.84;2526515;29;20052;-80
2023/03/15 03:52:25;;;;;;;4.82;1.40;;;;;;;2.10;100.00;97806.09;2532234;29;20087;-79
2023/03/15 03:53:41;;;;;;;6.55;1.90;;;;;;;2.17;100.00;97809.50;2536779;29;20067;-79
2023/03/15 03:55:02;;;;;;;4.28;1.65;;;;;;;2.15;100.00;97815.53;2537146;29;20411;-78
2023/03/15 03:56:25;;;;;;;6.28;1.95;;;;;;;2.13;100.00;97815.53;2525803;29;20052;-81
2023/03/15 03:57:43;;;;;;;5.40;2.45;;;;;;;2.23;100.00;97817.22;2520653;29;20393;-78
2023/03/15 03:59:02;;;;;;;7.82;2.05;;;;;;;2.35;100.00;97812.88;2530204;29;20480;-79
2023/03/15 04:00:22;;;;;;;9.32;1.92;;;;;;;2.35;100.00;97818.88;2536005;29;20076;-81
2023/03/15 04:01:41;;;;;;;7.68;2.17;;;;;;;2.24;100.00;97820.69;2535733;29;20047;-78
2023/03/15 04:03:04;;;;;;;4.85;1.67;;;;;;;2.32;100.00;97823.22;2535862;29;20052;-80
2023/03/15 04:04:25;;;;;;;7.72;1.75;;;;;;;2.31;100.00;97832.69;2535875;29;20072;-79
2023/03/15 04:05:59;;;;;;;4.97;1.77;;;;;;;1.88;100.00;97836.25;2536583;29;20056;-78
2023/03/15 04:07:15;;;;;;;5.15;1.88;;;;;;;1.98;100.00;97839.72;2535934;29;20044;-83
2023/03/15 04:08:48;;;;;;;6.63;2.10;;;;;;;1.90;100.00;97842.31;2523429;29;20427;-79
2023/03/15 04:10:08;;;;;;;5.25;1.67;;;;;;;2.03;100.00;97844.88;2534562;29;20104;-80
2023/03/15 04:11:25;;;;;;;8.05;1.73;;;;;;;2.18;100.00;97841.34;2537817;29;20522;-78
2023/03/15 04:13:44;;;;;;;7.93;1.40;;;;;;;2.11;100.00;97850.84;2527126;29;20056;-79
2023/03/15 04:14:53;;;;;;;;;;;;;;;;;;;;;
2023/03/15 04:16:13;;;;;;;7.13;1.73;;;;;;;2.13;100.00;97853.44;2526603;29;20056;-79
2023/03/15 04:17:29;;;;;;;4.25;1.52;;;;;;;2.20;100.00;97855.97;2530800;29;20052;-79
2023/03/15 04:18:45;;;;;;;4.43;1.75;;;;;;;2.05;100.00;97866.38;2537169;29;20058;-80
2023/03/15 04:20:11;;;;;;;4.82;1.40;;;;;;;2.18;100.00;97868.03;2537018;29;20056;-79
2023/03/15 04:21:30;;;;;;;9.32;2.40;;;;;;;2.24;100.00;97875.75;2537045;29;20124;-80
2023/03/15 04:22:48;;;;;;;6.35;2.53;;;;;;;2.26;100.00;97871.44;2537003;29;20107;-80
2023/03/15 04:24:04;;;;;;;7.15;2.85;;;;;;;2.29;100.00;97874.88;2537263;29;20056;-79
2023/03/15 04:25:20;;;;;;;4.38;2.42;;;;;;;2.22;100.00;97879.19;2536943;29;20083;-82
2023/03/15 04:26:36;;;;;;;8.35;2.40;;;;;;;2.22;100.00;97877.50;2537278;29;20052;-80
2023/03/15 04:27:58;;;;;;;9.68;3.00;;;;;;;2.42;100.00;97881.72;2537065;29;20052;-79
2023/03/15 04:29:14;;;;;;;7.57;2.90;;;;;;;2.45;100.00;97875.69;2537494;29;20047;-79
2023/03/15 04:30:30;;;;;;;8.73;3.17;;;;;;;2.50;100.00;97879.97;2537049;29;20507;-80
2023/03/15 04:31:45;;;;;;;8.57;3.05;;;;;;;2.48;100.00;97888.56;2536951;29;20051;-83
2023/03/15 04:33:02;;;;;;;9.52;2.20;;;;;;;2.37;100.00;97886.88;2536925;29;20464;-80
2023/03/15 04:34:17;;;;;;;6.60;2.40;;;;;;;2.32;100.00;97890.38;2536997;29;20048;-79
2023/03/15 04:35:35;;;;;;;8.07;2.40;;;;;;;2.37;100.00;97891.22;2537015;29;20471;-79
2023/03/15 04:36:53;;;;;;;6.13;2.20;;;;;;;1.93;100.00;97893.06;2536986;29;20048;-78
2023/03/15 04:38:09;;;;;;;8.38;2.50;;;;;;;1.82;100.00;97900.81;2536943;29;20052;-79
2023/03/15 04:39:24;;;;;;;9.63;2.58;;;;;;;1.59;100.00;97896.53;2537311;29;20052;-78
2023/03/15 04:40:41;;;;;;;7.85;2.10;;;;;;;1.82;100.00;97908.56;2536768;29;20098;-78
2023/03/15 04:41:57;;;;;;;6.28;2.10;;;;;;;1.86;100.00;97906.84;2536606;29;20048;-79
2023/03/15 04:43:12;;;;;;;5.82;1.85;;;;;;;2.04;100.00;97911.97;2534728;29;20582;-79
2023/03/15 04:44:28;;;;;;;5.82;2.10;;;;;;;2.14;100.00;97910.22;2536446;29;20632;-80
2023/03/15 04:45:44;;;;;;;4.63;2.10;;;;;;;2.04;100.00;97909.38;2536626;29;20411;-79
2023/03/15 04:46:59;;;;;;;7.60;2.20;;;;;;;1.99;100.00;97916.28;2536534;29;20044;-77
2023/03/15 04:48:15;;;;;;;6.93;2.25;;;;;;;1.86;100.00;97909.44;2536372;29;20048;-78
2023/03/15 04:49:31;;;;;;;7.47;2.42;;;;;;;1.81;100.00;97918.03;2536648;29;20052;-78
2023/03/15 04:50:46;;;;;;;4.65;2.38;;;;;;;1.96;100.00;97916.31;2536560;29;20067;-83
2023/03/15 04:52:02;;;;;;;7.47;2.38;;;;;;;1.99;100.00;97924.03;2536665;29;20072;-78
2023/03/15 04:53:17;;;;;;;7.00;2.10;;;;;;;2.01;100.00;97919.72;2536546;29;20096;-79
2023/03/15 04:54:33;;;;;;;7.25;2.95;;;;;;;1.97;100.00;97925.78;2536228;29;20126;-78
2023/03/15 04:55:48;;;;;;;10.32;2.85;;;;;;;2.00;100.00;97927.47;2536416;29;20055;-81
2023/03/15 04:57:04;;;;;;;9.20;2.60;;;;;;;2.02;100.00;97923.16;2536383;29;20063;-79
2023/03/15 04:58:20;;;;;;;6.88;2.83;;;;;;;2.03;100.00;97928.31;2536573;29;20543;-78
2023/03/15 04:59:35;;;;;;;8.18;2.20;;;;;;;2.11;100.00;97925.72;2536743;29;20063;-79
2023/03/15 05:00:52;;;;;;;10.18;2.55;;;;;;;2.10;100.00;97929.19;2537081;29;20055;-78
2023/03/15 05:02:08;;;;;;;7.53;2.65;;;;;;;1.90;100.00;97939.53;2536705;29;20108;-78
2023/03/15 05:03:24;;;;;;;7.93;2.97;;;;;;;2.05;100.00;97938.66;2536459;29;20104;-80
2023/03/15 05:04:39;;;;;;;4.60;2.20;;;;;;;2.05;100.00;97941.25;2536747;29;20563;-77
2023/03/15 05:05:55;;;;;;;6.65;2.63;;;;;;;1.97;100.00;97942.09;2536848;29;20566;-79
2023/03/15 05:07:11;;;;;;;8.02;2.90;;;;;;;1.69;100.00;97949.03;2536836;29;20666;-78
2023/03/15 05:08:26;;;;;;;9.70;2.85;;;;;;;1.50;100.00;97950.75;2536149;29;20088;-79
2023/03/15 05:09:44;;;;;;;6.38;2.85;;;;;;;1.66;100.00;97952.47;2536722;29;20139;-78
2023/03/15 05:11:01;;;;;;;9.90;3.05;;;;;;;1.67;100.00;97950.72;2536771;29;20159;-78
2023/03/15 05:12:17;;;;;;;7.68;3.30;;;;;;;1.70;100.00;97948.16;2536399;29;20064;-79
2023/03/15 05:13:33;;;;;;;7.82;2.67;;;;;;;1.54;100.00;97955.91;2536168;29;20500;-79
2023/03/15 05:14:48;;;;;;;8.23;3.13;;;;;;;1.37;100.00;97955.03;2537155;29;20079;-79
2023/03/15 05:16:04;;;;;;;10.65;3.40;;;;;;;1.26;100.00;97957.59;2536633;29;20055;-78
2023/03/15 05:17:21;;;;;;;8.57;3.72;;;;;;;1.43;100.00;97949.88;2536544;29;20072;-77
2023/03/15 05:18:37;;;;;;;10.85;4.07;;;;;;;1.29;100.00;97954.16;2526247;29;20080;-78
2023/03/15 05:19:52;;;;;;;12.68;4.25;;;;;;;1.22;100.00;97964.44;2529949;29;20060;-78
2023/03/15 05:21:08;;;;;;;8.90;4.20;;;;;;;1.20;100.00;97960.19;2536903;29;20233;-79
2023/03/15 05:22:24;;;;;;;11.32;4.07;;;;;;;1.25;100.00;97966.19;2536708;29;20056;-78
2023/03/15 05:23:40;;;;;;;9.73;3.80;;;;;;;1.31;100.00;97970.50;2526176;29;20139;-78
2023/03/15 05:24:56;;;;;;;12.30;4.00;;;;;;;1.28;100.00;97971.34;2530470;29;20063;-80
2023/03/15 05:26:13;;;;;;;11.48;4.78;;;;;;;1.11;100.00;97981.63;2536543;29;20080;-79
2023/03/15 05:27:29;;;;;;;10.63;4.50;;;;;;;0.94;100.00;97976.44;2536582;29;20060;-79
2023/03/15 05:28:45;;;;;;;8.93;3.60;;;;;;;0.89;100.00;97979.00;2536777;29;20084;-79
2023/03/15 05:30:02;;;;;;;14.07;3.08;;;;;;;0.65;100.00;97984.91;2536949;29;20072;-80
2023/03/15 05:31:17;;;;;;;14.27;3.38;;;;;;;0.59;100.00;97979.72;2537157;29;20543;-78
2023/03/15 05:32:34;;;;;;;7.50;2.60;;;;;;;0.82;100.00;97979.81;2536598;29;20126;-82
2023/03/15 05:33:53;;;;;;;5.40;3.03;;;;;;;0.70;100.00;97981.50;2537029;29;20115;-78
2023/03/15 05:35:09;;;;;;;9.07;2.60;;;;;;;0.75;100.00;97990.97;2536353;29;20067;-79
2023/03/15 05:36:25;;;;;;;7.93;2.70;;;;;;;0.66;100.00;97990.06;2537327;29;20655;-79
2023/03/15 05:37:41;;;;;;;7.85;3.08;;;;;;;0.75;100.00;97991.81;2536647;29;20127;-78
2023/03/15 05:38:57;;;;;;;10.80;2.63;;;;;;;0.73;100.00;98000.41;2536795;29;20887;-82
2023/03/15 05:40:14;;;;;;;6.07;3.03;;;;;;;0.83;100.00;98000.44;2536863;29;20096;-78
2023/03/15 05:41:30;;;;;;;5.88;2.35;;;;;;;0.82;100.00;98000.44;2536409;29;20052;-78
2023/03/15 05:42:45;;;;;;;8.32;2.75;;;;;;;1.03;100.00;98006.53;2536770;29;20060;-78
2023/03/15 05:44:01;;;;;;;8.25;2.78;;;;;;;1.05;100.00;98005.69;2536526;29;20067;-79
2023/03/15 05:45:17;;;;;;;7.05;2.70;;;;;;;1.19;100.00;98016.03;2536385;29;20428;-79
2023/03/15 05:46:32;;;;;;;6.55;2.78;;;;;;;1.12;100.00;98006.56;2536131;29;20052;-78
2023/03/15 05:47:48;;;;;;;8.55;2.80;;;;;;;1.15;100.00;98011.72;2536638;29;20052;-79
2023/03/15 05:49:04;;;;;;;9.23;2.72;;;;;;;1.23;100.00;98015.16;2536388;29;20052;-79
2023/03/15 05:50:19;;;;;;;6.25;2.15;;;;;;;1.22;100.00;98017.75;2537142;29;20055;-79
2023/03/15 05:51:35;;;;;;;4.93;2.60;;;;;;;1.21;100.00;98019.47;2536216;29;20052;-79
2023/03/15 05:52:51;;;;;;;7.18;2.10;;;;;;;1.06;100.00;98024.56;2536602;29;20348;-80
2023/03/15 05:54:07;;;;;;;6.00;2.22;;;;;;;0.97;100.00;98023.69;2536137;29;20044;-79
2023/03/15 05:55:23;;;;;;;6.45;2.17;;;;;;;0.67;100.00;98029.59;2536662;29;20056;-82
2023/03/15 05:56:39;;;;;;;4.97;2.10;;;;;;;0.56;100.00;98039.84;2536812;29;20083;-79
2023/03/15 05:57:54;;;;;;;5.43;2.22;;;;;;;0.68;100.00;98041.59;2536785;29;20213;-78
2023/03/15 05:59:10;;;;;;;7.97;2.22;;;;;;;1.01;100.00;98037.44;2535988;29;20048;-78
2023/03/15 06:00:28;;;;;;;10.13;2.20;;;;;;;0.76;100.00;98042.50;2534966;29;20092;-78
2023/03/15 06:01:44;;;;;;;6.40;2.10;;;;;;;0.77;100.00;98044.25;2536295;29;20059;-78
2023/03/15 06:03:00;;;;;;;4.50;1.70;;;;;;;0.81;100.00;98042.50;2535863;29;20048;-78
2023/03/15 06:04:15;;;;;;;9.18;2.20;;;;;;;0.81;100.00;98048.53;2535706;29;20054;-81
2023/03/15 06:05:30;;;;;;;8.55;2.67;;;;;;;0.98;100.00;98050.34;2536112;29;20044;-81
2023/03/15 06:06:50;;;;;;;7.22;2.08;;;;;;;0.86;100.00;98061.47;2535940;29;20163;-80